Terminal Aerodrome Forecast
Issued by NWS Salt Lake City, UT

Home | Current Version | Previous Version | Text Only | Print | Product List | Glossary On
Versions: 1 2 3 4 5 6 7 8 9 10 11 12 13 14 15 16 17 18 19 20 21 22 23 24 25 26 27 28 29 30 31
000
FTUS45 KSLC 260053 AAA
TAFSLC
TAF AMD
KSLC 260053Z 2601/2706 35009KT P6SM FEW130 BKN200
     FM260400 16005KT P6SM SKC
     FM261700 32007KT P6SM SKC
     FM270400 15005KT P6SM SKC=

USA.gov is the U.S. government's official web portal to all federal, state and local government web resources and services.